sensor_id;sensor_type;location;lat;lon;timestamp;P1;durP1;ratioP1;P2;durP2;ratioP2
72373;SDS011;60349;64.132;-21.820;2022-12-18T00:02:20;2.97;;;0.20;;
72373;SDS011;60349;64.132;-21.820;2022-12-18T00:04:47;3.00;;;0.20;;
72373;SDS011;60349;64.132;-21.820;2022-12-18T00:07:13;1.58;;;0.10;;
72373;SDS011;60349;64.132;-21.820;2022-12-18T00:09:39;1.38;;;0.20;;
72373;SDS011;60349;64.132;-21.820;2022-12-18T00:12:05;0.93;;;0.10;;
72373;SDS011;60349;64.132;-21.820;2022-12-18T00:14:31;4.32;;;0.10;;
72373;SDS011;60349;64.132;-21.820;2022-12-18T00:16:57;4.32;;;0.98;;
72373;SDS011;60349;64.132;-21.820;2022-12-18T00:19:25;9.15;;;3.40;;
72373;SDS011;60349;64.132;-21.820;2022-12-18T00:21:51;19.02;;;3.85;;
72373;SDS011;60349;64.132;-21.820;2022-12-18T00:24:18;13.00;;;3.67;;
72373;SDS011;60349;64.132;-21.820;2022-12-18T00:26:44;10.70;;;3.38;;
72373;SDS011;60349;64.132;-21.820;2022-12-18T00:29:10;13.68;;;3.90;;
72373;SDS011;60349;64.132;-21.820;2022-12-18T00:31:38;11.75;;;3.40;;
72373;SDS011;60349;64.132;-21.820;2022-12-18T00:34:05;10.13;;;2.97;;
72373;SDS011;60349;64.132;-21.820;2022-12-18T00:36:32;9.23;;;2.42;;
72373;SDS011;60349;64.132;-21.820;2022-12-18T00:38:59;8.85;;;2.80;;
72373;SDS011;60349;64.132;-21.820;2022-12-18T00:41:26;6.22;;;2.08;;
72373;SDS011;60349;64.132;-21.820;2022-12-18T00:44:12;6.88;;;2.35;;
72373;SDS011;60349;64.132;-21.820;2022-12-18T00:46:38;17.00;;;6.90;;
72373;SDS011;60349;64.132;-21.820;2022-12-18T00:49:05;22.20;;;11.00;;
72373;SDS011;60349;64.132;-21.820;2022-12-18T00:51:31;28.30;;;15.23;;
72373;SDS011;60349;64.132;-21.820;2022-12-18T00:53:57;29.38;;;14.63;;
72373;SDS011;60349;64.132;-21.820;2022-12-18T00:56:24;27.48;;;13.32;;
72373;SDS011;60349;64.132;-21.820;2022-12-18T00:58:50;26.63;;;13.48;;
72373;SDS011;60349;64.132;-21.820;2022-12-18T01:01:16;26.75;;;14.82;;
72373;SDS011;60349;64.132;-21.820;2022-12-18T01:03:42;26.70;;;14.20;;
72373;SDS011;60349;64.132;-21.820;2022-12-18T01:06:11;15.80;;;7.85;;
72373;SDS011;60349;64.132;-21.820;2022-12-18T01:08:37;17.88;;;8.68;;
72373;SDS011;60349;64.132;-21.820;2022-12-18T01:11:07;17.13;;;7.82;;
72373;SDS011;60349;64.132;-21.820;2022-12-18T01:13:34;14.85;;;6.63;;
72373;SDS011;60349;64.132;-21.820;2022-12-18T01:16:00;12.82;;;6.22;;
72373;SDS011;60349;64.132;-21.820;2022-12-18T01:18:26;12.38;;;6.30;;
72373;SDS011;60349;64.132;-21.820;2022-12-18T01:20:52;9.65;;;4.63;;
72373;SDS011;60349;64.132;-21.820;2022-12-18T01:23:18;11.60;;;5.05;;
72373;SDS011;60349;64.132;-21.820;2022-12-18T01:25:45;10.60;;;4.03;;
72373;SDS011;60349;64.132;-21.820;2022-12-18T01:28:11;8.63;;;3.90;;
72373;SDS011;60349;64.132;-21.820;2022-12-18T01:30:37;9.95;;;3.70;;
72373;SDS011;60349;64.132;-21.820;2022-12-18T01:33:06;8.60;;;3.63;;
72373;SDS011;60349;64.132;-21.820;2022-12-18T01:35:32;8.10;;;3.30;;
72373;SDS011;60349;64.132;-21.820;2022-12-18T01:38:00;19.98;;;4.20;;
72373;SDS011;60349;64.132;-21.820;2022-12-18T01:40:27;11.13;;;2.95;;
72373;SDS011;60349;64.132;-21.820;2022-12-18T01:42:53;7.10;;;2.08;;
72373;SDS011;60349;64.132;-21.820;2022-12-18T01:45:23;7.95;;;1.88;;
72373;SDS011;60349;64.132;-21.820;2022-12-18T01:47:53;4.47;;;1.50;;
72373;SDS011;60349;64.132;-21.820;2022-12-18T01:50:25;5.82;;;1.50;;
72373;SDS011;60349;64.132;-21.820;2022-12-18T01:52:54;5.40;;;1.48;;
72373;SDS011;60349;64.132;-21.820;2022-12-18T01:55:22;3.63;;;0.80;;
72373;SDS011;60349;64.132;-21.820;2022-12-18T01:57:51;4.57;;;1.05;;
72373;SDS011;60349;64.132;-21.820;2022-12-18T02:00:19;2.90;;;0.43;;
72373;SDS011;60349;64.132;-21.820;2022-12-18T02:02:45;2.67;;;0.73;;
72373;SDS011;60349;64.132;-21.820;2022-12-18T02:05:12;1.75;;;0.30;;
72373;SDS011;60349;64.132;-21.820;2022-12-18T02:10:07;2.92;;;0.60;;
72373;SDS011;60349;64.132;-21.820;2022-12-18T02:12:42;1.83;;;0.30;;
72373;SDS011;60349;64.132;-21.820;2022-12-18T02:15:16;2.17;;;0.40;;
72373;SDS011;60349;64.132;-21.820;2022-12-18T02:20:22;2.35;;;0.30;;
72373;SDS011;60349;64.132;-21.820;2022-12-18T02:28:19;0.90;;;0.10;;
72373;SDS011;60349;64.132;-21.820;2022-12-18T02:30:46;2.00;;;0.20;;
72373;SDS011;60349;64.132;-21.820;2022-12-18T02:33:13;1.00;;;0.10;;
72373;SDS011;60349;64.132;-21.820;2022-12-18T02:35:40;0.75;;;0.10;;
72373;SDS011;60349;64.132;-21.820;2022-12-18T02:38:07;1.50;;;0.10;;
72373;SDS011;60349;64.132;-21.820;2022-12-18T02:40:33;2.00;;;0.10;;
72373;SDS011;60349;64.132;-21.820;2022-12-18T02:43:07;2.83;;;0.10;;
72373;SDS011;60349;64.132;-21.820;2022-12-18T02:45:33;2.25;;;0.15;;
72373;SDS011;60349;64.132;-21.820;2022-12-18T02:47:59;0.63;;;0.10;;
72373;SDS011;60349;64.132;-21.820;2022-12-18T02:50:34;0.73;;;0.10;;
72373;SDS011;60349;64.132;-21.820;2022-12-18T02:55:34;0.90;;;0.10;;
72373;SDS011;60349;64.132;-21.820;2022-12-18T03:00:37;2.83;;;0.10;;
72373;SDS011;60349;64.132;-21.820;2022-12-18T03:05:36;0.40;;;0.00;;
72373;SDS011;60349;64.132;-21.820;2022-12-18T03:10:32;1.45;;;0.00;;
72373;SDS011;60349;64.132;-21.820;2022-12-18T03:13:03;1.67;;;0.00;;
72373;SDS011;60349;64.132;-21.820;2022-12-18T03:15:31;2.28;;;0.10;;
72373;SDS011;60349;64.132;-21.820;2022-12-18T03:18:02;0.20;;;0.00;;
72373;SDS011;60349;64.132;-21.820;2022-12-18T03:20:31;0.50;;;0.00;;
72373;SDS011;60349;64.132;-21.820;2022-12-18T03:22:59;3.15;;;0.10;;
72373;SDS011;60349;64.132;-21.820;2022-12-18T03:25:28;0.38;;;0.00;;
72373;SDS011;60349;64.132;-21.820;2022-12-18T03:27:56;2.92;;;0.00;;
72373;SDS011;60349;64.132;-21.820;2022-12-18T03:30:24;1.95;;;0.00;;
72373;SDS011;60349;64.132;-21.820;2022-12-18T03:35:44;1.52;;;0.00;;
72373;SDS011;60349;64.132;-21.820;2022-12-18T03:38:11;0.50;;;0.00;;
72373;SDS011;60349;64.132;-21.820;2022-12-18T03:43:52;0.22;;;0.00;;
72373;SDS011;60349;64.132;-21.820;2022-12-18T03:46:02;1.40;;;0.00;;
72373;SDS011;60349;64.132;-21.820;2022-12-18T03:48:37;0.20;;;0.00;;
72373;SDS011;60349;64.132;-21.820;2022-12-18T03:51:06;0.50;;;0.00;;
72373;SDS011;60349;64.132;-21.820;2022-12-18T03:56:02;0.55;;;0.00;;
72373;SDS011;60349;64.132;-21.820;2022-12-18T03:58:29;0.63;;;0.00;;
72373;SDS011;60349;64.132;-21.820;2022-12-18T04:00:58;0.50;;;0.00;;
72373;SDS011;60349;64.132;-21.820;2022-12-18T04:03:26;0.30;;;0.00;;
72373;SDS011;60349;64.132;-21.820;2022-12-18T04:05:54;1.30;;;0.00;;
72373;SDS011;60349;64.132;-21.820;2022-12-18T04:08:21;0.13;;;0.00;;
72373;SDS011;60349;64.132;-21.820;2022-12-18T04:10:48;1.08;;;0.00;;
72373;SDS011;60349;64.132;-21.820;2022-12-18T04:13:21;0.00;;;0.00;;
72373;SDS011;60349;64.132;-21.820;2022-12-18T04:15:47;0.10;;;0.00;;
72373;SDS011;60349;64.132;-21.820;2022-12-18T04:18:13;0.40;;;0.03;;
72373;SDS011;60349;64.132;-21.820;2022-12-18T04:20:39;0.17;;;0.00;;
72373;SDS011;60349;64.132;-21.820;2022-12-18T04:23:05;0.98;;;0.00;;
72373;SDS011;60349;64.132;-21.820;2022-12-18T04:25:31;0.25;;;0.00;;
72373;SDS011;60349;64.132;-21.820;2022-12-18T04:27:57;2.50;;;0.00;;
72373;SDS011;60349;64.132;-21.820;2022-12-18T04:30:23;0.85;;;0.63;;
72373;SDS011;60349;64.132;-21.820;2022-12-18T04:32:49;0.10;;;0.00;;
72373;SDS011;60349;64.132;-21.820;2022-12-18T04:35:16;0.05;;;0.00;;
72373;SDS011;60349;64.132;-21.820;2022-12-18T04:37:42;0.10;;;0.00;;
72373;SDS011;60349;64.132;-21.820;2022-12-18T04:40:08;0.60;;;0.00;;
72373;SDS011;60349;64.132;-21.820;2022-12-18T04:42:34;4.38;;;0.00;;
72373;SDS011;60349;64.132;-21.820;2022-12-18T04:45:00;0.30;;;0.00;;
72373;SDS011;60349;64.132;-21.820;2022-12-18T04:47:27;1.15;;;0.00;;
72373;SDS011;60349;64.132;-21.820;2022-12-18T04:49:53;0.60;;;0.00;;
72373;SDS011;60349;64.132;-21.820;2022-12-18T04:52:19;4.80;;;0.00;;
72373;SDS011;60349;64.132;-21.820;2022-12-18T04:54:45;0.35;;;0.10;;
72373;SDS011;60349;64.132;-21.820;2022-12-18T04:57:11;0.20;;;0.00;;
72373;SDS011;60349;64.132;-21.820;2022-12-18T04:59:37;0.75;;;0.00;;
72373;SDS011;60349;64.132;-21.820;2022-12-18T05:02:03;0.55;;;0.00;;
72373;SDS011;60349;64.132;-21.820;2022-12-18T05:04:29;0.68;;;0.00;;
72373;SDS011;60349;64.132;-21.820;2022-12-18T05:06:56;0.10;;;0.00;;
72373;SDS011;60349;64.132;-21.820;2022-12-18T05:09:22;1.65;;;0.00;;
72373;SDS011;60349;64.132;-21.820;2022-12-18T05:11:48;0.00;;;0.00;;
72373;SDS011;60349;64.132;-21.820;2022-12-18T05:14:14;0.43;;;0.00;;
72373;SDS011;60349;64.132;-21.820;2022-12-18T05:16:40;0.00;;;0.00;;
72373;SDS011;60349;64.132;-21.820;2022-12-18T05:19:07;1.25;;;0.00;;
72373;SDS011;60349;64.132;-21.820;2022-12-18T05:21:33;0.15;;;0.00;;
72373;SDS011;60349;64.132;-21.820;2022-12-18T05:23:59;0.65;;;0.00;;
72373;SDS011;60349;64.132;-21.820;2022-12-18T05:26:25;0.32;;;0.00;;
72373;SDS011;60349;64.132;-21.820;2022-12-18T05:28:51;0.57;;;0.00;;
72373;SDS011;60349;64.132;-21.820;2022-12-18T05:31:17;0.10;;;0.00;;
72373;SDS011;60349;64.132;-21.820;2022-12-18T05:33:43;3.20;;;0.00;;
72373;SDS011;60349;64.132;-21.820;2022-12-18T05:36:09;0.55;;;0.00;;
72373;SDS011;60349;64.132;-21.820;2022-12-18T05:38:37;2.00;;;0.00;;
72373;SDS011;60349;64.132;-21.820;2022-12-18T05:41:03;0.17;;;0.00;;
72373;SDS011;60349;64.132;-21.820;2022-12-18T05:43:30;0.85;;;0.00;;
72373;SDS011;60349;64.132;-21.820;2022-12-18T05:45:56;0.60;;;0.00;;
72373;SDS011;60349;64.132;-21.820;2022-12-18T05:48:22;0.00;;;0.00;;
72373;SDS011;60349;64.132;-21.820;2022-12-18T05:50:49;0.10;;;0.00;;
72373;SDS011;60349;64.132;-21.820;2022-12-18T05:53:16;2.33;;;0.00;;
72373;SDS011;60349;64.132;-21.820;2022-12-18T05:55:42;0.10;;;0.00;;
72373;SDS011;60349;64.132;-21.820;2022-12-18T05:58:09;0.20;;;0.00;;
72373;SDS011;60349;64.132;-21.820;2022-12-18T06:00:36;2.20;;;0.10;;
72373;SDS011;60349;64.132;-21.820;2022-12-18T06:03:09;1.90;;;0.00;;
72373;SDS011;60349;64.132;-21.820;2022-12-18T06:05:36;0.57;;;0.00;;
72373;SDS011;60349;64.132;-21.820;2022-12-18T06:08:02;0.35;;;0.00;;
72373;SDS011;60349;64.132;-21.820;2022-12-18T06:10:28;0.10;;;0.00;;
72373;SDS011;60349;64.132;-21.820;2022-12-18T06:12:54;0.10;;;0.00;;
72373;SDS011;60349;64.132;-21.820;2022-12-18T06:15:20;0.15;;;0.00;;
72373;SDS011;60349;64.132;-21.820;2022-12-18T06:17:47;0.10;;;0.00;;
72373;SDS011;60349;64.132;-21.820;2022-12-18T06:20:13;0.10;;;0.00;;
72373;SDS011;60349;64.132;-21.820;2022-12-18T06:22:39;2.95;;;0.00;;
72373;SDS011;60349;64.132;-21.820;2022-12-18T06:25:05;0.13;;;0.00;;
72373;SDS011;60349;64.132;-21.820;2022-12-18T06:27:31;1.27;;;0.00;;
72373;SDS011;60349;64.132;-21.820;2022-12-18T06:29:58;0.35;;;0.00;;
72373;SDS011;60349;64.132;-21.820;2022-12-18T06:32:25;0.45;;;0.00;;
72373;SDS011;60349;64.132;-21.820;2022-12-18T06:34:51;1.70;;;0.00;;
72373;SDS011;60349;64.132;-21.820;2022-12-18T06:37:18;0.17;;;0.00;;
72373;SDS011;60349;64.132;-21.820;2022-12-18T06:39:44;0.57;;;0.00;;
72373;SDS011;60349;64.132;-21.820;2022-12-18T06:42:10;0.20;;;0.00;;
72373;SDS011;60349;64.132;-21.820;2022-12-18T06:44:36;0.20;;;0.00;;
72373;SDS011;60349;64.132;-21.820;2022-12-18T06:47:02;0.20;;;0.00;;
72373;SDS011;60349;64.132;-21.820;2022-12-18T06:49:28;0.15;;;0.00;;
72373;SDS011;60349;64.132;-21.820;2022-12-18T06:51:54;0.20;;;0.00;;
72373;SDS011;60349;64.132;-21.820;2022-12-18T06:54:20;0.20;;;0.00;;
72373;SDS011;60349;64.132;-21.820;2022-12-18T06:56:46;1.05;;;0.00;;
72373;SDS011;60349;64.132;-21.820;2022-12-18T06:59:13;0.30;;;0.00;;
72373;SDS011;60349;64.132;-21.820;2022-12-18T07:01:39;3.10;;;0.00;;
72373;SDS011;60349;64.132;-21.820;2022-12-18T07:04:06;0.22;;;0.00;;
72373;SDS011;60349;64.132;-21.820;2022-12-18T07:06:32;0.00;;;0.00;;
72373;SDS011;60349;64.132;-21.820;2022-12-18T07:08:58;0.63;;;0.00;;
72373;SDS011;60349;64.132;-21.820;2022-12-18T07:11:24;0.10;;;0.10;;
72373;SDS011;60349;64.132;-21.820;2022-12-18T07:13:51;0.30;;;0.00;;
72373;SDS011;60349;64.132;-21.820;2022-12-18T07:16:18;2.55;;;0.10;;
72373;SDS011;60349;64.132;-21.820;2022-12-18T07:18:45;0.20;;;0.00;;
72373;SDS011;60349;64.132;-21.820;2022-12-18T07:21:14;1.52;;;0.00;;
72373;SDS011;60349;64.132;-21.820;2022-12-18T07:23:40;0.85;;;0.00;;
72373;SDS011;60349;64.132;-21.820;2022-12-18T07:26:11;1.42;;;0.00;;
72373;SDS011;60349;64.132;-21.820;2022-12-18T07:28:37;1.42;;;0.00;;
72373;SDS011;60349;64.132;-21.820;2022-12-18T07:31:08;0.47;;;0.00;;
72373;SDS011;60349;64.132;-21.820;2022-12-18T07:33:34;1.38;;;0.00;;
72373;SDS011;60349;64.132;-21.820;2022-12-18T07:36:01;0.70;;;0.00;;
72373;SDS011;60349;64.132;-21.820;2022-12-18T07:38:28;0.10;;;0.00;;
72373;SDS011;60349;64.132;-21.820;2022-12-18T07:40:59;0.85;;;0.00;;
72373;SDS011;60349;64.132;-21.820;2022-12-18T07:43:26;0.90;;;0.00;;
72373;SDS011;60349;64.132;-21.820;2022-12-18T07:45:52;1.33;;;0.00;;
72373;SDS011;60349;64.132;-21.820;2022-12-18T07:48:18;0.20;;;0.00;;
72373;SDS011;60349;64.132;-21.820;2022-12-18T07:50:44;1.55;;;0.00;;
72373;SDS011;60349;64.132;-21.820;2022-12-18T07:53:10;2.42;;;0.00;;
72373;SDS011;60349;64.132;-21.820;2022-12-18T07:55:36;2.15;;;0.00;;
72373;SDS011;60349;64.132;-21.820;2022-12-18T07:58:03;0.63;;;0.00;;
72373;SDS011;60349;64.132;-21.820;2022-12-18T08:00:30;0.10;;;0.00;;
72373;SDS011;60349;64.132;-21.820;2022-12-18T08:02:56;0.20;;;0.00;;
72373;SDS011;60349;64.132;-21.820;2022-12-18T08:05:23;2.63;;;0.00;;
72373;SDS011;60349;64.132;-21.820;2022-12-18T08:07:49;0.75;;;0.00;;
72373;SDS011;60349;64.132;-21.820;2022-12-18T08:10:15;1.27;;;0.00;;
72373;SDS011;60349;64.132;-21.820;2022-12-18T08:12:41;0.50;;;0.00;;
72373;SDS011;60349;64.132;-21.820;2022-12-18T08:15:07;0.43;;;0.00;;
72373;SDS011;60349;64.132;-21.820;2022-12-18T08:17:34;0.63;;;0.00;;
72373;SDS011;60349;64.132;-21.820;2022-12-18T08:20:00;1.00;;;0.00;;
72373;SDS011;60349;64.132;-21.820;2022-12-18T08:22:26;0.38;;;0.00;;
72373;SDS011;60349;64.132;-21.820;2022-12-18T08:24:52;1.70;;;0.00;;
72373;SDS011;60349;64.132;-21.820;2022-12-18T08:27:18;3.03;;;0.28;;
72373;SDS011;60349;64.132;-21.820;2022-12-18T08:29:44;0.20;;;0.00;;
72373;SDS011;60349;64.132;-21.820;2022-12-18T08:32:10;0.73;;;0.00;;
72373;SDS011;60349;64.132;-21.820;2022-12-18T08:34:36;0.93;;;0.00;;
72373;SDS011;60349;64.132;-21.820;2022-12-18T08:37:03;2.10;;;0.00;;
72373;SDS011;60349;64.132;-21.820;2022-12-18T08:39:29;2.55;;;0.00;;
72373;SDS011;60349;64.132;-21.820;2022-12-18T08:41:55;2.15;;;0.00;;
72373;SDS011;60349;64.132;-21.820;2022-12-18T08:44:41;1.63;;;0.08;;
72373;SDS011;60349;64.132;-21.820;2022-12-18T08:47:07;1.77;;;0.08;;
72373;SDS011;60349;64.132;-21.820;2022-12-18T08:49:33;1.33;;;0.10;;
72373;SDS011;60349;64.132;-21.820;2022-12-18T08:52:00;1.27;;;0.10;;
72373;SDS011;60349;64.132;-21.820;2022-12-18T08:54:27;3.90;;;0.10;;
72373;SDS011;60349;64.132;-21.820;2022-12-18T08:56:53;1.95;;;0.15;;
72373;SDS011;60349;64.132;-21.820;2022-12-18T08:59:19;3.50;;;0.10;;
72373;SDS011;60349;64.132;-21.820;2022-12-18T09:01:46;3.22;;;0.10;;
72373;SDS011;60349;64.132;-21.820;2022-12-18T09:04:13;0.73;;;0.13;;
72373;SDS011;60349;64.132;-21.820;2022-12-18T09:06:39;7.97;;;0.10;;
72373;SDS011;60349;64.132;-21.820;2022-12-18T09:09:06;3.45;;;0.10;;
72373;SDS011;60349;64.132;-21.820;2022-12-18T09:11:32;3.60;;;0.03;;
72373;SDS011;60349;64.132;-21.820;2022-12-18T09:13:59;0.50;;;0.00;;
72373;SDS011;60349;64.132;-21.820;2022-12-18T09:16:26;1.67;;;0.10;;
72373;SDS011;60349;64.132;-21.820;2022-12-18T09:18:53;1.50;;;0.35;;
72373;SDS011;60349;64.132;-21.820;2022-12-18T09:21:24;0.95;;;0.10;;
72373;SDS011;60349;64.132;-21.820;2022-12-18T09:23:51;0.98;;;0.10;;
72373;SDS011;60349;64.132;-21.820;2022-12-18T09:26:17;1.65;;;0.00;;
72373;SDS011;60349;64.132;-21.820;2022-12-18T09:28:43;0.68;;;0.00;;
72373;SDS011;60349;64.132;-21.820;2022-12-18T09:31:10;1.00;;;0.08;;
72373;SDS011;60349;64.132;-21.820;2022-12-18T09:33:37;1.80;;;0.00;;
72373;SDS011;60349;64.132;-21.820;2022-12-18T09:36:04;1.80;;;0.00;;
72373;SDS011;60349;64.132;-21.820;2022-12-18T09:38:31;2.33;;;0.00;;
72373;SDS011;60349;64.132;-21.820;2022-12-18T09:43:46;7.05;;;0.10;;
72373;SDS011;60349;64.132;-21.820;2022-12-18T09:46:17;7.95;;;0.10;;
72373;SDS011;60349;64.132;-21.820;2022-12-18T09:48:46;6.20;;;0.10;;
72373;SDS011;60349;64.132;-21.820;2022-12-18T09:53:39;5.70;;;0.13;;
72373;SDS011;60349;64.132;-21.820;2022-12-18T09:56:10;1.38;;;0.10;;
72373;SDS011;60349;64.132;-21.820;2022-12-18T09:58:39;1.77;;;0.10;;
72373;SDS011;60349;64.132;-21.820;2022-12-18T10:01:13;3.55;;;0.10;;
72373;SDS011;60349;64.132;-21.820;2022-12-18T10:03:40;3.13;;;0.10;;
72373;SDS011;60349;64.132;-21.820;2022-12-18T10:06:13;2.10;;;0.10;;
72373;SDS011;60349;64.132;-21.820;2022-12-18T10:16:35;0.95;;;0.03;;
72373;SDS011;60349;64.132;-21.820;2022-12-18T10:21:34;1.65;;;0.10;;
72373;SDS011;60349;64.132;-21.820;2022-12-18T10:24:05;0.90;;;0.10;;
72373;SDS011;60349;64.132;-21.820;2022-12-18T10:26:36;0.93;;;0.10;;
72373;SDS011;60349;64.132;-21.820;2022-12-18T10:29:04;0.85;;;0.10;;
72373;SDS011;60349;64.132;-21.820;2022-12-18T10:31:33;1.17;;;0.10;;
72373;SDS011;60349;64.132;-21.820;2022-12-18T10:33:59;1.77;;;0.15;;
72373;SDS011;60349;64.132;-21.820;2022-12-18T10:36:25;1.85;;;0.03;;
72373;SDS011;60349;64.132;-21.820;2022-12-18T10:38:51;0.70;;;0.08;;
72373;SDS011;60349;64.132;-21.820;2022-12-18T10:43:44;0.60;;;0.00;;
72373;SDS011;60349;64.132;-21.820;2022-12-18T10:48:55;0.82;;;0.00;;
72373;SDS011;60349;64.132;-21.820;2022-12-18T10:53:52;0.30;;;0.00;;
72373;SDS011;60349;64.132;-21.820;2022-12-18T10:56:19;0.65;;;0.00;;
72373;SDS011;60349;64.132;-21.820;2022-12-18T10:58:55;1.25;;;0.10;;
72373;SDS011;60349;64.132;-21.820;2022-12-18T11:01:21;1.60;;;0.00;;
72373;SDS011;60349;64.132;-21.820;2022-12-18T11:03:59;0.45;;;0.00;;
72373;SDS011;60349;64.132;-21.820;2022-12-18T11:06:25;1.25;;;0.00;;
72373;SDS011;60349;64.132;-21.820;2022-12-18T11:08:58;1.05;;;0.00;;
72373;SDS011;60349;64.132;-21.820;2022-12-18T11:11:25;0.88;;;0.00;;
72373;SDS011;60349;64.132;-21.820;2022-12-18T11:16:23;2.72;;;0.00;;
72373;SDS011;60349;64.132;-21.820;2022-12-18T11:18:49;0.65;;;0.00;;
72373;SDS011;60349;64.132;-21.820;2022-12-18T11:21:15;1.00;;;0.05;;
72373;SDS011;60349;64.132;-21.820;2022-12-18T11:23:51;0.90;;;0.00;;
72373;SDS011;60349;64.132;-21.820;2022-12-18T11:26:18;0.50;;;0.00;;
72373;SDS011;60349;64.132;-21.820;2022-12-18T11:31:28;1.05;;;0.00;;
72373;SDS011;60349;64.132;-21.820;2022-12-18T11:36:39;2.67;;;1.88;;
72373;SDS011;60349;64.132;-21.820;2022-12-18T11:39:11;5.50;;;0.20;;
72373;SDS011;60349;64.132;-21.820;2022-12-18T11:41:40;1.33;;;0.10;;
72373;SDS011;60349;64.132;-21.820;2022-12-18T11:49:40;1.42;;;0.15;;
72373;SDS011;60349;64.132;-21.820;2022-12-18T11:52:24;0.55;;;0.00;;
72373;SDS011;60349;64.132;-21.820;2022-12-18T11:54:52;0.90;;;0.00;;
72373;SDS011;60349;64.132;-21.820;2022-12-18T11:57:36;1.52;;;0.00;;
72373;SDS011;60349;64.132;-21.820;2022-12-18T12:08:00;1.05;;;0.08;;
72373;SDS011;60349;64.132;-21.820;2022-12-18T12:10:29;0.50;;;0.00;;
72373;SDS011;60349;64.132;-21.820;2022-12-18T12:28:58;1.13;;;0.00;;
72373;SDS011;60349;64.132;-21.820;2022-12-18T12:39:36;0.43;;;0.03;;
72373;SDS011;60349;64.132;-21.820;2022-12-18T12:42:11;1.60;;;0.10;;
72373;SDS011;60349;64.132;-21.820;2022-12-18T12:44:57;1.05;;;0.10;;
72373;SDS011;60349;64.132;-21.820;2022-12-18T12:49:50;0.88;;;0.00;;
72373;SDS011;60349;64.132;-21.820;2022-12-18T12:54:43;0.90;;;0.00;;
72373;SDS011;60349;64.132;-21.820;2022-12-18T12:57:12;1.33;;;0.10;;
72373;SDS011;60349;64.132;-21.820;2022-12-18T13:02:28;0.70;;;0.00;;
72373;SDS011;60349;64.132;-21.820;2022-12-18T13:07:29;1.08;;;0.10;;
72373;SDS011;60349;64.132;-21.820;2022-12-18T13:12:52;1.55;;;0.10;;
72373;SDS011;60349;64.132;-21.820;2022-12-18T13:16:22;1.45;;;0.10;;
72373;SDS011;60349;64.132;-21.820;2022-12-18T13:25:55;1.00;;;0.17;;
72373;SDS011;60349;64.132;-21.820;2022-12-18T13:28:23;1.95;;;0.00;;
72373;SDS011;60349;64.132;-21.820;2022-12-18T13:30:56;0.68;;;0.00;;
72373;SDS011;60349;64.132;-21.820;2022-12-18T13:38:39;1.92;;;0.00;;
72373;SDS011;60349;64.132;-21.820;2022-12-18T13:46:19;1.10;;;0.10;;
72373;SDS011;60349;64.132;-21.820;2022-12-18T13:51:18;0.95;;;0.00;;
72373;SDS011;60349;64.132;-21.820;2022-12-18T13:53:49;2.05;;;0.00;;
72373;SDS011;60349;64.132;-21.820;2022-12-18T13:56:16;0.40;;;0.00;;
72373;SDS011;60349;64.132;-21.820;2022-12-18T13:58:43;0.45;;;0.05;;
72373;SDS011;60349;64.132;-21.820;2022-12-18T14:01:21;0.90;;;0.00;;
72373;SDS011;60349;64.132;-21.820;2022-12-18T14:03:48;4.90;;;0.10;;
72373;SDS011;60349;64.132;-21.820;2022-12-18T14:06:14;1.20;;;0.20;;
72373;SDS011;60349;64.132;-21.820;2022-12-18T14:08:41;0.85;;;0.00;;
72373;SDS011;60349;64.132;-21.820;2022-12-18T14:11:18;1.30;;;0.08;;
72373;SDS011;60349;64.132;-21.820;2022-12-18T14:13:46;0.55;;;0.00;;
72373;SDS011;60349;64.132;-21.820;2022-12-18T14:16:13;0.32;;;0.20;;
72373;SDS011;60349;64.132;-21.820;2022-12-18T14:18:52;1.23;;;0.00;;
72373;SDS011;60349;64.132;-21.820;2022-12-18T14:21:22;1.65;;;0.00;;
72373;SDS011;60349;64.132;-21.820;2022-12-18T14:23:49;0.75;;;0.00;;
72373;SDS011;60349;64.132;-21.820;2022-12-18T14:26:29;0.80;;;0.00;;
72373;SDS011;60349;64.132;-21.820;2022-12-18T14:28:56;2.58;;;0.08;;
72373;SDS011;60349;64.132;-21.820;2022-12-18T14:31:23;2.47;;;0.00;;
72373;SDS011;60349;64.132;-21.820;2022-12-18T14:33:50;1.40;;;0.00;;
72373;SDS011;60349;64.132;-21.820;2022-12-18T14:36:17;1.00;;;0.00;;
72373;SDS011;60349;64.132;-21.820;2022-12-18T14:38:48;1.08;;;0.00;;
72373;SDS011;60349;64.132;-21.820;2022-12-18T14:41:15;1.50;;;0.00;;
72373;SDS011;60349;64.132;-21.820;2022-12-18T14:43:43;1.42;;;0.00;;
72373;SDS011;60349;64.132;-21.820;2022-12-18T14:46:29;0.70;;;0.03;;
72373;SDS011;60349;64.132;-21.820;2022-12-18T14:48:55;2.00;;;0.00;;
72373;SDS011;60349;64.132;-21.820;2022-12-18T14:51:23;1.23;;;0.10;;
72373;SDS011;60349;64.132;-21.820;2022-12-18T14:53:54;0.25;;;0.00;;
72373;SDS011;60349;64.132;-21.820;2022-12-18T14:56:36;0.70;;;0.10;;
72373;SDS011;60349;64.132;-21.820;2022-12-18T14:59:04;0.70;;;0.00;;
72373;SDS011;60349;64.132;-21.820;2022-12-18T15:01:32;1.48;;;0.10;;
72373;SDS011;60349;64.132;-21.820;2022-12-18T15:03:59;1.15;;;0.00;;
72373;SDS011;60349;64.132;-21.820;2022-12-18T15:06:30;0.43;;;0.00;;
72373;SDS011;60349;64.132;-21.820;2022-12-18T15:08:58;1.00;;;0.00;;
72373;SDS011;60349;64.132;-21.820;2022-12-18T15:11:25;4.00;;;0.82;;
72373;SDS011;60349;64.132;-21.820;2022-12-18T15:13:51;1.90;;;0.00;;
72373;SDS011;60349;64.132;-21.820;2022-12-18T15:16:17;1.55;;;0.00;;
72373;SDS011;60349;64.132;-21.820;2022-12-18T15:18:43;0.95;;;0.00;;
72373;SDS011;60349;64.132;-21.820;2022-12-18T15:21:11;1.02;;;0.00;;
72373;SDS011;60349;64.132;-21.820;2022-12-18T15:23:48;2.58;;;0.00;;
72373;SDS011;60349;64.132;-21.820;2022-12-18T15:26:15;2.08;;;0.00;;
72373;SDS011;60349;64.132;-21.820;2022-12-18T15:33:41;0.43;;;0.00;;
72373;SDS011;60349;64.132;-21.820;2022-12-18T15:36:11;0.95;;;0.00;;
72373;SDS011;60349;64.132;-21.820;2022-12-18T15:38:38;0.70;;;0.00;;
72373;SDS011;60349;64.132;-21.820;2022-12-18T15:41:22;1.15;;;0.00;;
72373;SDS011;60349;64.132;-21.820;2022-12-18T15:43:49;1.55;;;0.03;;
72373;SDS011;60349;64.132;-21.820;2022-12-18T15:46:17;0.40;;;0.00;;
72373;SDS011;60349;64.132;-21.820;2022-12-18T15:48:44;0.30;;;0.00;;
72373;SDS011;60349;64.132;-21.820;2022-12-18T15:51:14;1.83;;;0.00;;
72373;SDS011;60349;64.132;-21.820;2022-12-18T15:53:41;2.28;;;0.00;;
72373;SDS011;60349;64.132;-21.820;2022-12-18T15:56:11;4.28;;;0.00;;
72373;SDS011;60349;64.132;-21.820;2022-12-18T15:58:56;2.85;;;0.10;;
72373;SDS011;60349;64.132;-21.820;2022-12-18T16:01:23;4.47;;;0.00;;
72373;SDS011;60349;64.132;-21.820;2022-12-18T16:03:49;1.33;;;0.00;;
72373;SDS011;60349;64.132;-21.820;2022-12-18T16:06:15;1.58;;;0.00;;
72373;SDS011;60349;64.132;-21.820;2022-12-18T16:08:41;1.10;;;0.10;;
72373;SDS011;60349;64.132;-21.820;2022-12-18T16:11:11;0.85;;;0.00;;
72373;SDS011;60349;64.132;-21.820;2022-12-18T16:13:42;0.30;;;0.00;;
72373;SDS011;60349;64.132;-21.820;2022-12-18T16:16:08;0.98;;;0.10;;
72373;SDS011;60349;64.132;-21.820;2022-12-18T16:18:34;0.90;;;0.10;;
72373;SDS011;60349;64.132;-21.820;2022-12-18T16:21:00;2.00;;;0.35;;
72373;SDS011;60349;64.132;-21.820;2022-12-18T16:23:26;0.90;;;0.08;;
72373;SDS011;60349;64.132;-21.820;2022-12-18T16:25:52;1.85;;;0.03;;
72373;SDS011;60349;64.132;-21.820;2022-12-18T16:28:18;1.52;;;0.00;;
72373;SDS011;60349;64.132;-21.820;2022-12-18T16:30:45;1.25;;;0.00;;
72373;SDS011;60349;64.132;-21.820;2022-12-18T16:33:11;1.45;;;0.10;;
72373;SDS011;60349;64.132;-21.820;2022-12-18T16:35:37;0.65;;;0.00;;
72373;SDS011;60349;64.132;-21.820;2022-12-18T16:38:03;0.85;;;0.10;;
72373;SDS011;60349;64.132;-21.820;2022-12-18T16:40:30;0.88;;;0.10;;
72373;SDS011;60349;64.132;-21.820;2022-12-18T16:42:57;0.70;;;0.00;;